createdAt,value
2023-02-06T00:00:48.964Z,-5.56
2023-02-06T00:02:11.863Z,-5.55
2023-02-06T00:03:14.905Z,-5.55
2023-02-06T00:04:18.179Z,-5.56
2023-02-06T00:05:21.587Z,-5.56
2023-02-06T00:06:24.579Z,-5.55
2023-02-06T00:07:27.477Z,-5.56
2023-02-06T00:08:30.453Z,-5.57
2023-02-06T00:09:33.360Z,-5.57
2023-02-06T00:10:36.354Z,-5.57
2023-02-06T00:11:39.380Z,-5.57
2023-02-06T00:12:42.258Z,-5.55
2023-02-06T00:13:45.784Z,-5.55
2023-02-06T00:14:48.973Z,-5.54
2023-02-06T00:15:51.918Z,-5.54
2023-02-06T00:16:54.822Z,-5.53
2023-02-06T00:17:57.736Z,-5.53
2023-02-06T00:19:01.654Z,-5.52
2023-02-06T00:20:07.057Z,-5.52
2023-02-06T00:21:10.404Z,-5.52
2023-02-06T00:22:14.470Z,-5.50
2023-02-06T00:23:17.454Z,-5.49
2023-02-06T00:24:20.516Z,-5.48
2023-02-06T00:25:23.438Z,-5.48
2023-02-06T00:26:27.926Z,-5.47
2023-02-06T00:27:30.880Z,-5.47
2023-02-06T00:28:35.034Z,-5.46
2023-02-06T00:29:37.909Z,-5.48
2023-02-06T00:30:40.929Z,-5.45
2023-02-06T00:31:44.623Z,-5.45
2023-02-06T00:32:49.256Z,-5.43
2023-02-06T00:33:52.293Z,-5.45
2023-02-06T00:34:58.795Z,-5.46
2023-02-06T00:36:02.496Z,-5.42
2023-02-06T00:37:05.373Z,-5.43
2023-02-06T00:38:10.727Z,-5.42
2023-02-06T00:39:14.126Z,-5.37
2023-02-06T00:40:17.805Z,-5.39
2023-02-06T00:41:21.077Z,-5.37
2023-02-06T00:42:24.001Z,-5.36
2023-02-06T00:43:26.937Z,-5.33
2023-02-06T00:44:30.341Z,-5.30
2023-02-06T00:45:33.986Z,-5.30
2023-02-06T00:46:37.675Z,-5.29
2023-02-06T00:47:40.698Z,-5.29
2023-02-06T00:48:45.573Z,-5.29
2023-02-06T00:49:48.466Z,-5.29
2023-02-06T00:50:52.809Z,-5.30
2023-02-06T00:51:55.842Z,-5.29
2023-02-06T00:53:01.133Z,-5.29
2023-02-06T00:54:07.170Z,-5.30
2023-02-06T00:55:10.054Z,-5.27
2023-02-06T00:56:13.059Z,-5.27
2023-02-06T00:57:15.956Z,-5.26
2023-02-06T00:58:18.902Z,-5.24
2023-02-06T00:59:21.787Z,-5.23
2023-02-06T01:00:24.677Z,-5.22
2023-02-06T01:01:28.521Z,-5.21
2023-02-06T01:02:31.449Z,-5.20
2023-02-06T01:03:34.837Z,-5.18
2023-02-06T01:04:37.841Z,-5.18
2023-02-06T01:05:43.711Z,-5.17
2023-02-06T01:06:47.332Z,-5.16
2023-02-06T01:07:50.239Z,-5.17
2023-02-06T01:08:53.983Z,-5.17
2023-02-06T01:09:56.894Z,-5.17
2023-02-06T01:11:01.584Z,-5.16
2023-02-06T01:12:05.450Z,-5.16
2023-02-06T01:13:08.545Z,-5.16
2023-02-06T01:14:11.500Z,-5.15
2023-02-06T01:15:15.088Z,-5.15
2023-02-06T01:16:21.604Z,-5.15
2023-02-06T01:17:24.547Z,-5.15
2023-02-06T01:18:28.122Z,-5.15
2023-02-06T01:19:31.008Z,-5.14
2023-02-06T01:20:34.151Z,-5.14
2023-02-06T01:21:37.147Z,-5.14
2023-02-06T01:22:40.817Z,-5.13
2023-02-06T01:23:44.622Z,-5.13
2023-02-06T01:24:47.633Z,-5.13
2023-02-06T01:25:51.059Z,-5.13
2023-02-06T01:26:53.936Z,-5.14
2023-02-06T01:27:56.884Z,-5.14
2023-02-06T01:28:59.810Z,-5.14
2023-02-06T01:30:06.686Z,-5.14
2023-02-06T01:31:24.571Z,-5.14
2023-02-06T01:32:27.514Z,-5.14
2023-02-06T01:33:30.412Z,-5.13
2023-02-06T01:34:33.861Z,-5.14
2023-02-06T01:35:37.564Z,-5.15
2023-02-06T01:36:40.669Z,-5.16
2023-02-06T01:37:44.164Z,-5.18
2023-02-06T01:38:48.563Z,-5.17
2023-02-06T01:39:51.503Z,-5.18
2023-02-06T01:40:59.551Z,-5.18
2023-02-06T01:42:03.278Z,-5.19
2023-02-06T01:43:17.199Z,-5.20
2023-02-06T01:44:24.978Z,-5.22
2023-02-06T01:45:30.655Z,-5.22
2023-02-06T01:46:34.522Z,-5.22
2023-02-06T01:47:37.518Z,-5.22
2023-02-06T01:48:48.570Z,-5.21
2023-02-06T01:49:51.480Z,-5.20
2023-02-06T01:50:56.936Z,-5.21
2023-02-06T01:52:11.839Z,-5.22
2023-02-06T01:53:17.364Z,-5.23
2023-02-06T01:54:20.823Z,-5.23
2023-02-06T01:55:23.899Z,-5.25
2023-02-06T01:56:32.074Z,-5.26
2023-02-06T01:57:35.136Z,-5.27
2023-02-06T01:58:42.689Z,-5.29
2023-02-06T01:59:51.748Z,-5.30
2023-02-06T02:00:56.298Z,-5.30
2023-02-06T02:01:59.740Z,-5.31
2023-02-06T02:03:04.798Z,-5.32
2023-02-06T02:04:13.797Z,-5.35
2023-02-06T02:05:18.574Z,-5.36
2023-02-06T02:06:25.147Z,-5.36
2023-02-06T02:07:44.676Z,-5.39
2023-02-06T02:08:51.871Z,-5.37
2023-02-06T02:09:55.060Z,-5.39
2023-02-06T02:11:00.463Z,-5.41
2023-02-06T02:12:04.254Z,-5.42
2023-02-06T02:13:07.277Z,-5.43
2023-02-06T02:14:12.494Z,-5.44
2023-02-06T02:15:16.128Z,-5.46
2023-02-06T02:16:28.118Z,-5.45
2023-02-06T02:17:46.495Z,-5.46
2023-02-06T02:19:09.179Z,-5.47
2023-02-06T02:20:49.979Z,-5.47
2023-02-06T02:22:34.424Z,-5.47
2023-02-06T02:23:47.042Z,-5.48
2023-02-06T02:24:59.578Z,-5.49
2023-02-06T02:26:25.082Z,-5.51
2023-02-06T02:27:49.013Z,-5.54
2023-02-06T02:28:57.644Z,-5.56
2023-02-06T02:30:38.394Z,-5.58
2023-02-06T02:32:27.447Z,-5.61
2023-02-06T02:33:55.472Z,-5.66
2023-02-06T02:35:17.940Z,-5.66
2023-02-06T02:36:43.248Z,-5.65
2023-02-06T02:38:03.890Z,-5.65
2023-02-06T02:39:35.405Z,-5.64
2023-02-06T02:40:48.867Z,-5.64
2023-02-06T02:42:35.068Z,-5.64
2023-02-06T02:43:55.136Z,-5.66
2023-02-06T02:45:12.306Z,-5.67
2023-02-06T02:46:25.322Z,-5.69
2023-02-06T02:47:33.629Z,-5.69
2023-02-06T02:48:41.237Z,-5.69
2023-02-06T02:49:50.239Z,-5.69
2023-02-06T02:50:55.267Z,-5.73
2023-02-06T02:51:59.337Z,-5.69
2023-02-06T02:53:05.130Z,-5.69
2023-02-06T02:54:08.274Z,-5.72
2023-02-06T02:55:21.588Z,-5.70
2023-02-06T02:56:27.548Z,-5.69
2023-02-06T02:57:32.059Z,-5.70
2023-02-06T02:58:35.734Z,-5.72
2023-02-06T02:59:44.482Z,-5.73
2023-02-06T03:00:58.024Z,-5.70
2023-02-06T03:02:06.375Z,-5.73
2023-02-06T03:03:13.134Z,-5.72
2023-02-06T03:04:23.090Z,-5.71
2023-02-06T03:05:28.033Z,-5.72
2023-02-06T03:06:44.701Z,-5.70
2023-02-06T03:08:02.941Z,-5.71
2023-02-06T03:09:22.772Z,-5.71
2023-02-06T03:10:48.402Z,-5.72
2023-02-06T03:12:04.943Z,-5.73
2023-02-06T03:13:22.854Z,-5.74
2023-02-06T03:14:36.076Z,-5.75
2023-02-06T03:15:47.119Z,-5.75
2023-02-06T03:16:58.301Z,-5.75
2023-02-06T03:18:18.162Z,-5.75
2023-02-06T03:19:31.619Z,-5.75
2023-02-06T03:20:39.402Z,-5.76
2023-02-06T03:21:45.102Z,-5.77
2023-02-06T03:22:51.063Z,-5.77
2023-02-06T03:23:57.953Z,-5.78
2023-02-06T03:25:04.850Z,-5.79
2023-02-06T03:26:12.639Z,-5.80
2023-02-06T03:27:17.966Z,-5.80
2023-02-06T03:28:25.447Z,-5.81
2023-02-06T03:29:35.464Z,-5.81
2023-02-06T03:30:41.995Z,-5.84
2023-02-06T03:31:59.392Z,-5.84
2023-02-06T03:33:07.967Z,-5.86
2023-02-06T03:34:16.503Z,-5.87
2023-02-06T03:35:39.463Z,-5.87
2023-02-06T03:36:43.248Z,-5.88
2023-02-06T03:37:47.808Z,-5.88
2023-02-06T03:38:52.497Z,-5.88
2023-02-06T03:39:59.270Z,-5.88
2023-02-06T03:41:03.779Z,-5.88
2023-02-06T03:42:10.052Z,-5.88
2023-02-06T03:43:18.968Z,-5.90
2023-02-06T03:44:26.631Z,-5.90
2023-02-06T03:45:37.441Z,-5.93
2023-02-06T03:46:43.352Z,-5.90
2023-02-06T03:47:48.207Z,-5.89
2023-02-06T03:48:56.233Z,-5.93
2023-02-06T03:50:01.304Z,-5.91
2023-02-06T03:51:11.980Z,-5.89
2023-02-06T03:52:20.037Z,-5.91
2023-02-06T03:53:25.529Z,-5.92
2023-02-06T03:54:30.966Z,-5.89
2023-02-06T03:55:35.280Z,-5.87
2023-02-06T03:56:50.940Z,-5.87
2023-02-06T03:58:02.562Z,-5.87
2023-02-06T03:59:06.594Z,-5.88
2023-02-06T04:00:10.448Z,-5.87
2023-02-06T04:01:16.810Z,-5.87
2023-02-06T04:02:22.296Z,-5.88
2023-02-06T04:03:26.299Z,-5.89
2023-02-06T04:04:36.514Z,-5.90
2023-02-06T04:05:40.039Z,-5.91
2023-02-06T04:06:44.121Z,-5.92
2023-02-06T04:07:47.426Z,-5.94
2023-02-06T04:08:50.468Z,-5.95
2023-02-06T04:09:53.996Z,-5.94
2023-02-06T04:10:56.885Z,-5.93
2023-02-06T04:11:59.777Z,-5.93
2023-02-06T04:13:02.789Z,-5.93
2023-02-06T04:14:05.746Z,-5.93
2023-02-06T04:15:09.117Z,-5.92
2023-02-06T04:16:12.081Z,-5.92
2023-02-06T04:17:31.336Z,-5.91
2023-02-06T04:18:38.847Z,-5.89
2023-02-06T04:19:42.325Z,-5.89
2023-02-06T04:20:45.272Z,-5.87
2023-02-06T04:21:48.665Z,-5.87
2023-02-06T04:22:53.123Z,-5.88
2023-02-06T04:23:55.997Z,-5.88
2023-02-06T04:24:58.841Z,-5.88
2023-02-06T04:26:01.740Z,-5.88
2023-02-06T04:27:04.837Z,-5.87
2023-02-06T04:28:10.777Z,-5.87
2023-02-06T04:29:13.792Z,-5.86
2023-02-06T04:30:18.297Z,-5.87
2023-02-06T04:31:21.303Z,-5.86
2023-02-06T04:32:24.671Z,-5.86
2023-02-06T04:33:27.650Z,-5.87
2023-02-06T04:34:31.636Z,-5.86
2023-02-06T04:35:34.924Z,-5.85
2023-02-06T04:36:38.445Z,-5.84
2023-02-06T04:37:41.558Z,-5.84
2023-02-06T04:38:44.520Z,-5.84
2023-02-06T04:39:48.041Z,-5.84
2023-02-06T04:40:50.909Z,-5.84
2023-02-06T04:41:53.952Z,-5.83
2023-02-06T04:42:56.892Z,-5.84
2023-02-06T04:44:00.354Z,-5.84
2023-02-06T04:45:05.640Z,-5.86
2023-02-06T04:46:08.600Z,-5.84
2023-02-06T04:47:11.777Z,-5.83
2023-02-06T04:48:14.593Z,-5.82
2023-02-06T04:49:17.804Z,-5.81
2023-02-06T04:50:20.692Z,-5.80
2023-02-06T04:51:23.572Z,-5.79
2023-02-06T04:52:26.505Z,-5.78
2023-02-06T04:53:29.549Z,-5.77
2023-02-06T04:54:32.870Z,-5.76
2023-02-06T04:55:36.707Z,-5.75
2023-02-06T04:56:40.027Z,-5.77
2023-02-06T04:57:42.904Z,-5.76
2023-02-06T04:58:45.815Z,-5.75
2023-02-06T04:59:48.657Z,-5.76
2023-02-06T05:00:52.017Z,-5.77
2023-02-06T05:01:55.000Z,-5.78
2023-02-06T05:02:57.971Z,-5.79
2023-02-06T05:04:00.988Z,-5.81
2023-02-06T05:05:04.505Z,-5.81
2023-02-06T05:06:07.505Z,-5.81
2023-02-06T05:07:10.354Z,-5.80
2023-02-06T05:08:13.628Z,-5.80
2023-02-06T05:09:17.376Z,-5.78
2023-02-06T05:10:20.340Z,-5.76
2023-02-06T05:11:23.268Z,-5.76
2023-02-06T05:12:28.981Z,-5.75
2023-02-06T05:13:34.005Z,-5.76
2023-02-06T05:14:37.571Z,-5.76
2023-02-06T05:15:40.474Z,-5.78
2023-02-06T05:16:44.047Z,-5.79
2023-02-06T05:17:47.307Z,-5.81
2023-02-06T05:18:56.142Z,-5.82
2023-02-06T05:19:59.164Z,-5.83
2023-02-06T05:21:02.514Z,-5.83
2023-02-06T05:22:05.387Z,-5.84
2023-02-06T05:23:08.859Z,-5.85
2023-02-06T05:24:12.149Z,-5.86
2023-02-06T05:25:15.120Z,-5.87
2023-02-06T05:26:18.898Z,-5.85
2023-02-06T05:27:22.088Z,-5.84
2023-02-06T05:28:25.666Z,-5.85
2023-02-06T05:29:28.912Z,-5.85
2023-02-06T05:30:32.764Z,-5.81
2023-02-06T05:31:36.013Z,-5.83
2023-02-06T05:32:38.982Z,-5.80
2023-02-06T05:33:41.997Z,-5.80
2023-02-06T05:34:45.005Z,-5.83
2023-02-06T05:35:48.049Z,-5.83
2023-02-06T05:36:51.346Z,-5.81
2023-02-06T05:37:54.266Z,-5.83
2023-02-06T05:38:57.183Z,-5.84
2023-02-06T05:40:00.879Z,-5.84
2023-02-06T05:41:04.075Z,-5.84
2023-02-06T05:42:06.958Z,-5.83
2023-02-06T05:43:11.159Z,-5.81
2023-02-06T05:44:14.067Z,-5.80
2023-02-06T05:45:17.260Z,-5.83
2023-02-06T05:46:20.136Z,-5.82
2023-02-06T05:47:23.199Z,-5.81
2023-02-06T05:48:28.846Z,-5.78
2023-02-06T05:49:31.703Z,-5.77
2023-02-06T05:50:34.572Z,-5.78
2023-02-06T05:51:37.460Z,-5.75
2023-02-06T05:52:40.471Z,-5.75
2023-02-06T05:53:43.376Z,-5.74
2023-02-06T05:54:46.358Z,-5.69
2023-02-06T05:55:49.370Z,-5.66
2023-02-06T05:56:52.801Z,-5.64
2023-02-06T05:57:55.682Z,-5.63
2023-02-06T05:58:59.574Z,-5.62
2023-02-06T06:00:02.840Z,-5.62
2023-02-06T06:01:15.045Z,-5.61
2023-02-06T06:02:19.019Z,-5.60
2023-02-06T06:03:22.014Z,-5.60
2023-02-06T06:04:25.790Z,-5.60
2023-02-06T06:05:29.467Z,-5.58
2023-02-06T06:06:32.901Z,-5.57
2023-02-06T06:07:36.292Z,-5.56
2023-02-06T06:08:39.324Z,-5.54
2023-02-06T06:09:42.951Z,-5.52
2023-02-06T06:10:46.061Z,-5.51
2023-02-06T06:11:49.064Z,-5.49
2023-02-06T06:12:52.977Z,-5.49
2023-02-06T06:13:56.296Z,-5.48
2023-02-06T06:15:02.200Z,-5.47
2023-02-06T06:16:06.489Z,-5.46
2023-02-06T06:17:09.870Z,-5.46
2023-02-06T06:18:13.100Z,-5.46
2023-02-06T06:19:16.277Z,-5.46
2023-02-06T06:20:19.701Z,-5.45
2023-02-06T06:21:23.917Z,-5.44
2023-02-06T06:22:27.282Z,-5.46
2023-02-06T06:23:30.317Z,-5.46
2023-02-06T06:24:33.870Z,-5.45
2023-02-06T06:25:37.300Z,-5.44
2023-02-06T06:26:40.465Z,-5.46
2023-02-06T06:27:43.539Z,-5.46
2023-02-06T06:28:46.966Z,-5.46
2023-02-06T06:29:50.234Z,-5.46
2023-02-06T06:31:00.959Z,-5.46
2023-02-06T06:32:05.107Z,-5.43
2023-02-06T06:33:08.109Z,-5.42
2023-02-06T06:34:11.822Z,-5.42
2023-02-06T06:35:15.037Z,-5.40
2023-02-06T06:36:18.033Z,-5.37
2023-02-06T06:37:21.712Z,-5.36
2023-02-06T06:38:24.668Z,-5.34
2023-02-06T06:39:27.691Z,-5.32
2023-02-06T06:40:30.642Z,-5.31
2023-02-06T06:41:33.628Z,-5.31
2023-02-06T06:42:36.680Z,-5.31
2023-02-06T06:43:39.856Z,-5.30
2023-02-06T06:44:42.790Z,-5.30
2023-02-06T06:45:46.587Z,-5.27
2023-02-06T06:46:49.453Z,-5.25
2023-02-06T06:47:52.476Z,-5.24
2023-02-06T06:48:56.492Z,-5.21
2023-02-06T06:49:59.822Z,-5.21
2023-02-06T06:51:03.103Z,-5.19
2023-02-06T06:52:13.375Z,-5.18
2023-02-06T06:53:23.251Z,-5.18
2023-02-06T06:54:26.288Z,-5.20
2023-02-06T06:55:29.388Z,-5.21
2023-02-06T06:56:32.324Z,-5.21
2023-02-06T06:57:35.244Z,-5.21
2023-02-06T06:58:38.224Z,-5.19
2023-02-06T06:59:41.232Z,-5.17
2023-02-06T07:00:44.161Z,-5.15
2023-02-06T07:01:49.050Z,-5.13
2023-02-06T07:02:52.226Z,-5.10
2023-02-06T07:03:55.274Z,-5.07
2023-02-06T07:05:00.582Z,-5.06
2023-02-06T07:06:05.056Z,-5.03
2023-02-06T07:07:08.373Z,-5.03
2023-02-06T07:08:11.231Z,-5.01
2023-02-06T07:09:14.152Z,-4.96
2023-02-06T07:10:17.330Z,-4.93
2023-02-06T07:11:20.748Z,-4.93
2023-02-06T07:12:23.757Z,-4.88
2023-02-06T07:13:26.668Z,-4.86
2023-02-06T07:14:29.929Z,-4.83
2023-02-06T07:15:32.892Z,-4.80
2023-02-06T07:16:35.806Z,-4.76
2023-02-06T07:17:38.917Z,-4.73
2023-02-06T07:18:43.146Z,-4.71
2023-02-06T07:19:48.237Z,-4.69
2023-02-06T07:20:51.640Z,-4.66
2023-02-06T07:21:54.605Z,-4.63
2023-02-06T07:22:57.642Z,-4.61
2023-02-06T07:24:03.997Z,-4.58
2023-02-06T07:26:48.954Z,-4.52
2023-02-06T07:27:52.585Z,-4.52
2023-02-06T07:28:55.759Z,-4.51
2023-02-06T07:29:59.989Z,-4.51
2023-02-06T07:31:05.526Z,-4.50
2023-02-06T07:32:09.517Z,-4.49
2023-02-06T07:33:12.389Z,-4.47
2023-02-06T07:34:16.819Z,-4.42
2023-02-06T07:35:20.748Z,-4.38
2023-02-06T07:36:24.090Z,-4.36
2023-02-06T07:37:26.969Z,-4.37
2023-02-06T07:38:29.877Z,-4.36
2023-02-06T07:39:33.120Z,-4.33
2023-02-06T07:40:44.581Z,-4.29
2023-02-06T07:41:50.942Z,-4.22
2023-02-06T07:42:55.175Z,-4.18
2023-02-06T07:44:02.014Z,-4.15
2023-02-06T07:45:05.257Z,-4.14
2023-02-06T07:46:08.256Z,-4.10
2023-02-06T07:47:11.642Z,-4.04
2023-02-06T07:48:14.629Z,-4.04
2023-02-06T07:49:17.705Z,-3.98
2023-02-06T07:50:20.925Z,-3.99
2023-02-06T07:51:23.963Z,-3.98
2023-02-06T07:52:26.989Z,-3.92
2023-02-06T07:53:29.909Z,-3.89
2023-02-06T07:54:33.001Z,-3.84
2023-02-06T07:55:38.587Z,-3.81
2023-02-06T07:56:42.766Z,-3.81
2023-02-06T07:57:45.734Z,-3.79
2023-02-06T07:58:53.589Z,-3.78
2023-02-06T07:59:56.445Z,-3.74
2023-02-06T08:01:04.948Z,-3.70
2023-02-06T08:02:11.297Z,-3.67
2023-02-06T08:03:14.458Z,-3.63
2023-02-06T08:04:18.371Z,-3.62
2023-02-06T08:05:21.308Z,-3.57
2023-02-06T08:06:25.434Z,-3.54
2023-02-06T08:07:28.319Z,-3.53
2023-02-06T08:08:31.213Z,-3.50
2023-02-06T08:09:34.373Z,-3.47
2023-02-06T08:10:40.613Z,-3.43
2023-02-06T08:11:44.031Z,-3.38
2023-02-06T08:12:47.475Z,-3.32
2023-02-06T08:13:50.511Z,-3.28
2023-02-06T08:14:53.424Z,-3.22
2023-02-06T08:15:56.382Z,-3.18
2023-02-06T08:16:59.988Z,-3.12
2023-02-06T08:18:02.885Z,-3.07
2023-02-06T08:19:11.135Z,-3.02
2023-02-06T08:20:14.217Z,-3.00
2023-02-06T08:21:21.162Z,-3.00
2023-02-06T08:22:24.642Z,-3.00
2023-02-06T08:23:27.585Z,-2.98
2023-02-06T08:24:30.509Z,-2.94
2023-02-06T08:25:33.608Z,-2.89
2023-02-06T08:26:36.517Z,-2.84
2023-02-06T08:27:39.399Z,-2.81
2023-02-06T08:28:43.869Z,-2.79
2023-02-06T08:29:46.933Z,-2.76
2023-02-06T08:30:50.357Z,-2.73
2023-02-06T08:31:53.368Z,-2.69
2023-02-06T08:32:56.327Z,-2.67
2023-02-06T08:33:59.210Z,-2.65
2023-02-06T08:35:02.552Z,-2.63
2023-02-06T08:36:06.173Z,-2.62
2023-02-06T08:37:09.099Z,-2.60
2023-02-06T08:38:12.342Z,-2.58
2023-02-06T08:39:17.398Z,-2.59
2023-02-06T08:40:21.286Z,-2.61
2023-02-06T08:41:29.894Z,-2.60
2023-02-06T08:42:32.773Z,-2.57
2023-02-06T08:43:35.749Z,-2.53
2023-02-06T08:44:38.724Z,-2.49
2023-02-06T08:45:41.679Z,-2.47
2023-02-06T08:46:46.579Z,-2.47
2023-02-06T08:47:51.199Z,-2.48
2023-02-06T08:48:59.585Z,-2.47
2023-02-06T08:50:03.664Z,-2.48
2023-02-06T08:51:08.643Z,-2.47
2023-02-06T08:52:11.660Z,-2.46
2023-02-06T08:53:14.640Z,-2.44
2023-02-06T08:54:22.042Z,-2.40
2023-02-06T08:55:25.893Z,-2.34
2023-02-06T08:56:31.752Z,-2.30
2023-02-06T08:57:35.569Z,-2.28
2023-02-06T08:58:39.284Z,-2.22
2023-02-06T08:59:44.381Z,-2.14
2023-02-06T09:00:47.243Z,-2.10
2023-02-06T09:01:50.363Z,-2.07
2023-02-06T09:02:54.622Z,-2.02
2023-02-06T09:04:02.683Z,-2.01
2023-02-06T09:05:06.009Z,-2.01
2023-02-06T09:06:10.649Z,-1.99
2023-02-06T09:07:16.286Z,-1.92
2023-02-06T09:08:20.090Z,-1.87
2023-02-06T09:09:23.667Z,-1.84
2023-02-06T09:10:28.187Z,-1.82
2023-02-06T09:11:31.617Z,-1.75
2023-02-06T09:12:34.505Z,-1.70
2023-02-06T09:13:38.364Z,-1.64
2023-02-06T09:14:42.246Z,-1.57
2023-02-06T09:15:52.364Z,-1.48
2023-02-06T09:16:57.316Z,-1.41
2023-02-06T09:18:00.248Z,-1.40
2023-02-06T09:19:04.400Z,-1.42
2023-02-06T09:20:07.800Z,-1.40
2023-02-06T09:21:14.867Z,-1.37
2023-02-06T09:22:17.795Z,-1.40
2023-02-06T09:23:21.239Z,-1.41
2023-02-06T09:24:24.518Z,-1.40
2023-02-06T09:25:27.522Z,-1.38
2023-02-06T09:26:38.908Z,-1.35
2023-02-06T09:27:46.775Z,-1.30
2023-02-06T09:28:58.233Z,-1.26
2023-02-06T09:30:01.173Z,-1.22
2023-02-06T09:31:04.308Z,-1.19
2023-02-06T09:32:07.869Z,-1.11
2023-02-06T09:33:10.816Z,-1.07
2023-02-06T09:34:13.707Z,-1.05
2023-02-06T09:35:16.692Z,-1.01
2023-02-06T09:36:21.324Z,-1.00
2023-02-06T09:37:24.251Z,-0.99
2023-02-06T09:38:27.665Z,-0.97
2023-02-06T09:39:31.107Z,-0.96
2023-02-06T09:40:36.140Z,-0.91
2023-02-06T09:41:43.942Z,-0.89
2023-02-06T09:42:47.918Z,-0.91
2023-02-06T09:43:59.001Z,-0.93
2023-02-06T09:45:18.697Z,-0.96
2023-02-06T09:46:27.450Z,-0.94
2023-02-06T09:47:33.698Z,-0.88
2023-02-06T09:48:39.502Z,-0.84
2023-02-06T09:49:53.089Z,-0.79
2023-02-06T09:51:18.471Z,-0.72
2023-02-06T09:52:46.959Z,-0.63
2023-02-06T09:54:09.128Z,-0.49
2023-02-06T09:55:30.354Z,-0.46
2023-02-06T09:57:01.155Z,-0.42
2023-02-06T09:58:03.984Z,-0.36
2023-02-06T09:59:22.185Z,-0.31
2023-02-06T10:00:37.331Z,-0.24
2023-02-06T10:01:46.098Z,-0.18
2023-02-06T10:03:24.276Z,-0.11
2023-02-06T10:06:37.887Z,0.11
2023-02-06T10:08:02.411Z,0.18
2023-02-06T10:09:16.345Z,0.22
2023-02-06T10:10:35.280Z,0.17
2023-02-06T10:11:59.550Z,0.09
2023-02-06T10:13:24.640Z,0.04
2023-02-06T10:14:58.167Z,0.01
2023-02-06T10:16:30.507Z,0.01
2023-02-06T10:18:11.876Z,0.10
2023-02-06T10:19:59.771Z,0.19
2023-02-06T10:21:12.797Z,0.30
2023-02-06T10:22:21.029Z,0.37
2023-02-06T10:23:41.987Z,0.47
2023-02-06T10:25:07.594Z,0.64
2023-02-06T10:26:23.451Z,0.72
2023-02-06T10:27:26.868Z,0.79
2023-02-06T10:28:31.852Z,0.84
2023-02-06T10:29:36.499Z,0.90
2023-02-06T10:31:05.453Z,0.88
2023-02-06T10:32:18.982Z,0.90
2023-02-06T10:33:31.839Z,0.87
2023-02-06T10:35:03.617Z,0.87
2023-02-06T10:36:21.933Z,0.90
2023-02-06T10:37:31.289Z,0.88
2023-02-06T10:39:18.144Z,0.84
2023-02-06T10:40:31.120Z,0.88
2023-02-06T10:41:58.833Z,0.95
2023-02-06T10:43:19.979Z,1.07
2023-02-06T10:44:22.933Z,1.21
2023-02-06T10:45:31.435Z,1.34
2023-02-06T10:46:48.398Z,1.51
2023-02-06T10:48:23.768Z,1.63
2023-02-06T10:49:36.861Z,1.65
2023-02-06T10:50:48.644Z,1.60
2023-02-06T10:51:56.636Z,1.61
2023-02-06T10:53:16.223Z,1.65
2023-02-06T10:54:24.810Z,1.71
2023-02-06T10:55:48.138Z,1.76
2023-02-06T10:56:54.401Z,1.75
2023-02-06T10:58:16.258Z,1.73
2023-02-06T10:59:42.746Z,1.73
2023-02-06T11:00:47.075Z,1.84
2023-02-06T11:01:56.206Z,1.89
2023-02-06T11:03:07.526Z,1.96
2023-02-06T11:04:21.504Z,2.00
2023-02-06T11:05:27.352Z,2.06
2023-02-06T11:06:30.604Z,2.07
2023-02-06T11:07:39.559Z,2.09
2023-02-06T11:08:45.875Z,2.15
2023-02-06T11:09:48.847Z,2.18
2023-02-06T11:10:52.022Z,2.19
2023-02-06T11:11:57.251Z,2.18
2023-02-06T11:13:06.643Z,2.17
2023-02-06T11:14:24.977Z,2.13
2023-02-06T11:15:32.939Z,2.12
2023-02-06T11:16:38.877Z,2.11
2023-02-06T11:17:44.870Z,2.08
2023-02-06T11:18:49.626Z,2.06
2023-02-06T11:19:53.734Z,2.02
2023-02-06T11:20:56.967Z,2.00
2023-02-06T11:22:15.948Z,1.95
2023-02-06T11:23:22.287Z,1.79
2023-02-06T11:24:25.325Z,1.72
2023-02-06T11:25:32.023Z,1.72
2023-02-06T11:26:46.403Z,1.74
2023-02-06T11:27:49.507Z,1.76
2023-02-06T11:28:56.413Z,1.74
2023-02-06T11:30:07.262Z,1.73
2023-02-06T11:31:10.588Z,1.73
2023-02-06T11:32:41.517Z,1.70
2023-02-06T11:33:57.146Z,1.61
2023-02-06T11:35:04.648Z,1.54
2023-02-06T11:36:22.807Z,1.45
2023-02-06T11:37:34.208Z,1.32
2023-02-06T11:38:37.149Z,1.15
2023-02-06T11:39:40.223Z,1.08
2023-02-06T11:40:54.897Z,1.07
2023-02-06T11:41:58.871Z,1.05
2023-02-06T11:43:26.380Z,1.03
2023-02-06T11:44:37.036Z,1.01
2023-02-06T11:45:41.268Z,0.95
2023-02-06T11:46:44.361Z,0.90
2023-02-06T11:47:47.375Z,0.88
2023-02-06T11:48:56.509Z,0.87
2023-02-06T11:50:23.660Z,0.85
2023-02-06T11:51:54.680Z,0.82
2023-02-06T11:53:00.741Z,0.78
2023-02-06T11:54:04.601Z,0.74
2023-02-06T11:55:29.279Z,0.73
2023-02-06T11:56:32.399Z,0.68
2023-02-06T11:57:35.376Z,0.65
2023-02-06T11:58:38.942Z,0.64
2023-02-06T11:59:53.958Z,0.63
2023-02-06T12:01:04.288Z,0.62
2023-02-06T12:02:26.363Z,0.64
2023-02-06T12:03:53.938Z,0.62
2023-02-06T12:05:16.312Z,0.60
2023-02-06T12:06:22.353Z,0.61
2023-02-06T12:07:30.070Z,0.62
2023-02-06T12:08:57.392Z,0.59
2023-02-06T12:10:02.884Z,0.63
2023-02-06T12:11:12.461Z,0.68
2023-02-06T12:12:32.872Z,0.69
2023-02-06T12:13:43.354Z,0.71
2023-02-06T12:14:57.830Z,0.71
2023-02-06T12:16:06.644Z,0.71
2023-02-06T12:17:25.648Z,0.71
2023-02-06T12:18:44.699Z,0.73
2023-02-06T12:19:52.474Z,0.74
2023-02-06T12:21:28.719Z,0.77
2023-02-06T12:22:38.313Z,0.81
2023-02-06T12:23:53.475Z,0.86
2023-02-06T12:24:58.196Z,0.89
2023-02-06T12:26:06.577Z,0.88
2023-02-06T12:27:18.504Z,0.89
2023-02-06T12:28:38.628Z,0.88
2023-02-06T12:29:52.521Z,0.83
2023-02-06T12:30:59.081Z,0.79
2023-02-06T12:32:08.351Z,0.77
2023-02-06T12:33:17.235Z,0.80
2023-02-06T12:34:29.472Z,0.78
2023-02-06T12:35:47.774Z,0.80
2023-02-06T12:37:14.045Z,0.80
2023-02-06T12:38:31.988Z,0.76
2023-02-06T12:39:35.078Z,0.79
2023-02-06T12:41:23.984Z,0.79
2023-02-06T12:42:36.412Z,0.85
2023-02-06T12:43:41.826Z,0.86
2023-02-06T12:45:27.654Z,0.82
2023-02-06T12:46:31.333Z,0.76
2023-02-06T12:47:57.386Z,0.74
2023-02-06T12:49:22.662Z,0.72
2023-02-06T12:50:31.866Z,0.71
2023-02-06T12:51:37.532Z,0.71
2023-02-06T12:52:48.244Z,0.72
2023-02-06T12:53:54.287Z,0.74
2023-02-06T12:55:21.618Z,0.78
2023-02-06T12:56:27.944Z,0.83
2023-02-06T12:57:32.003Z,0.86
2023-02-06T12:58:51.278Z,0.87
2023-02-06T13:00:09.807Z,0.84
2023-02-06T13:01:25.779Z,0.82
2023-02-06T13:03:03.212Z,0.82
2023-02-06T13:04:36.470Z,0.81
2023-02-06T13:05:47.106Z,0.84
2023-02-06T13:07:03.100Z,0.85
2023-02-06T13:08:18.707Z,0.86
2023-02-06T13:09:27.824Z,0.85
2023-02-06T13:10:30.786Z,0.87
2023-02-06T13:11:39.210Z,0.88
2023-02-06T13:12:42.175Z,0.86
2023-02-06T13:13:45.128Z,0.85
2023-02-06T13:14:55.003Z,0.82
2023-02-06T13:16:00.575Z,0.81
2023-02-06T13:17:10.435Z,0.77
2023-02-06T13:18:35.883Z,0.76
2023-02-06T13:19:41.853Z,0.75
2023-02-06T13:21:24.085Z,0.76
2023-02-06T13:22:39.393Z,0.75
2023-02-06T13:24:06.729Z,0.77
2023-02-06T13:25:41.813Z,0.81
2023-02-06T13:26:55.500Z,0.79
2023-02-06T13:28:01.155Z,0.76
2023-02-06T13:29:04.160Z,0.74
2023-02-06T13:30:17.727Z,0.75
2023-02-06T13:31:28.477Z,0.78
2023-02-06T13:32:42.214Z,0.80
2023-02-06T13:33:52.587Z,0.83
2023-02-06T13:35:14.354Z,0.83
2023-02-06T13:36:25.858Z,0.82
2023-02-06T13:37:37.912Z,0.81
2023-02-06T13:38:42.544Z,0.82
2023-02-06T13:40:09.524Z,0.83
2023-02-06T13:41:15.324Z,0.86
2023-02-06T13:42:51.091Z,0.87
2023-02-06T13:44:08.035Z,0.86
2023-02-06T13:45:20.053Z,0.87
2023-02-06T13:46:45.420Z,0.84
2023-02-06T13:48:00.986Z,0.79
2023-02-06T13:49:19.286Z,0.74
2023-02-06T13:50:31.515Z,0.68
2023-02-06T13:52:06.759Z,0.62
2023-02-06T13:53:23.179Z,0.57
2023-02-06T13:54:47.970Z,0.58
2023-02-06T13:56:16.368Z,0.59
2023-02-06T13:58:13.096Z,0.59
2023-02-06T13:59:24.618Z,0.59
2023-02-06T14:00:31.267Z,0.58
2023-02-06T14:01:34.409Z,0.56
2023-02-06T14:02:44.387Z,0.57
2023-02-06T14:03:50.615Z,0.58
2023-02-06T14:04:53.784Z,0.58
2023-02-06T14:06:30.860Z,0.57
2023-02-06T14:07:45.732Z,0.57
2023-02-06T14:09:08.914Z,0.57
2023-02-06T14:10:56.826Z,0.55
2023-02-06T14:12:39.484Z,0.50
2023-02-06T14:14:17.399Z,0.44
2023-02-06T14:15:52.084Z,0.38
2023-02-06T14:17:23.112Z,0.35
2023-02-06T14:18:42.412Z,0.32
2023-02-06T14:20:01.835Z,0.28
2023-02-06T14:21:41.732Z,0.27
2023-02-06T14:23:11.304Z,0.25
2023-02-06T14:24:32.677Z,0.24
2023-02-06T14:26:30.396Z,0.23
2023-02-06T14:27:58.022Z,0.22
2023-02-06T14:29:25.988Z,0.18
2023-02-06T14:30:41.799Z,0.14
2023-02-06T14:31:50.645Z,0.11
2023-02-06T14:33:31.770Z,0.10
2023-02-06T14:34:53.490Z,0.09
2023-02-06T14:36:37.508Z,0.09
2023-02-06T14:38:06.615Z,0.07
2023-02-06T14:39:30.349Z,0.05
2023-02-06T14:40:39.768Z,0.04
2023-02-06T14:41:42.827Z,0.04
2023-02-06T14:42:47.047Z,0.04
2023-02-06T14:43:51.304Z,0.05
2023-02-06T14:45:03.272Z,0.04
2023-02-06T14:47:49.099Z,0.02
2023-02-06T14:48:57.287Z,-0.02
2023-02-06T14:50:01.613Z,-0.04
2023-02-06T14:51:06.661Z,-0.05
2023-02-06T14:52:18.665Z,-0.08
2023-02-06T14:53:32.602Z,-0.12
2023-02-06T14:54:38.564Z,-0.12
2023-02-06T14:55:43.421Z,-0.14
2023-02-06T14:56:46.466Z,-0.17
2023-02-06T14:57:49.406Z,-0.18
2023-02-06T14:58:52.390Z,-0.19
2023-02-06T15:00:13.852Z,-0.19